Time;durP1;ratioP1;P1;durP2;ratioP2;P2;SDS_P1;SDS_P2;PMS_P1;PMS_P2;Temp;Humidity;BMP_temperature;BMP_pressure;BME280_temperature;BME280_humidity;BME280_pressure;Samples;Min_cycle;Max_cycle;Signal;HPM_P1;HPM_P2
2024/01/05 00:02:17;;;;;;;17.58;9.38;;;;;;;;;;5116122;27;20049;-64
2024/01/05 00:04:44;;;;;;;19.58;9.57;;;;;;;;;;5095498;27;20129;-64
2024/01/05 00:07:11;;;;;;;18.98;9.68;;;;;;;;;;5117343;27;20119;-63
2024/01/05 00:09:37;;;;;;;17.63;9.27;;;;;;;;;;5097884;27;20183;-64
2024/01/05 00:12:03;;;;;;;17.30;9.93;;;;;;;;;;5115617;27;20041;-63
2024/01/05 00:14:30;;;;;;;23.23;10.45;;;;;;;;;;5096387;27;20043;-64
2024/01/05 00:16:59;;;;;;;20.38;9.43;;;;;;;;;;5116104;27;20043;-63
2024/01/05 00:19:25;;;;;;;20.25;9.93;;;;;;;;;;5094491;27;20474;-64
2024/01/05 00:21:51;;;;;;;16.02;10.35;;;;;;;;;;5092914;27;20070;-64
2024/01/05 00:24:18;;;;;;;22.85;10.80;;;;;;;;;;5096690;27;20134;-64
2024/01/05 00:26:44;;;;;;;20.02;9.90;;;;;;;;;;5096533;27;20544;-63
2024/01/05 00:29:10;;;;;;;21.65;10.88;;;;;;;;;;5095045;27;20067;-63
2024/01/05 00:31:36;;;;;;;18.38;9.95;;;;;;;;;;5112095;27;20116;-63
2024/01/05 00:34:02;;;;;;;22.33;11.35;;;;;;;;;;5079014;27;20522;-64
2024/01/05 00:36:28;;;;;;;25.90;12.13;;;;;;;;;;5096547;27;20144;-64
2024/01/05 00:38:55;;;;;;;22.60;10.60;;;;;;;;;;5095866;27;20182;-64
2024/01/05 00:41:21;;;;;;;25.02;12.45;;;;;;;;;;5116391;27;20096;-63
2024/01/05 00:43:47;;;;;;;24.58;12.48;;;;;;;;;;5094261;27;20046;-64
2024/01/05 00:46:14;;;;;;;24.23;12.40;;;;;;;;;;5117581;27;20138;-63
2024/01/05 00:48:40;;;;;;;26.33;12.07;;;;;;;;;;5100140;27;20108;-63
2024/01/05 00:51:07;;;;;;;31.45;13.00;;;;;;;;;;5123297;27;20506;-63
2024/01/05 00:53:33;;;;;;;26.35;13.02;;;;;;;;;;5121073;27;20039;-64
2024/01/05 00:55:59;;;;;;;26.60;13.13;;;;;;;;;;5104119;27;20047;-64
2024/01/05 00:58:25;;;;;;;28.65;12.40;;;;;;;;;;5100312;28;20051;-64
2024/01/05 01:00:52;;;;;;;27.92;13.63;;;;;;;;;;5099307;27;20080;-64
2024/01/05 01:03:18;;;;;;;29.40;14.77;;;;;;;;;;5102639;27;20118;-64
2024/01/05 01:05:44;;;;;;;27.98;14.18;;;;;;;;;;5104666;27;20053;-64
2024/01/05 01:08:12;;;;;;;29.10;13.85;;;;;;;;;;5101703;27;20477;-64
2024/01/05 01:10:39;;;;;;;28.92;14.10;;;;;;;;;;5099571;27;20770;-63
2024/01/05 01:13:05;;;;;;;25.45;14.45;;;;;;;;;;5119223;27;20062;-64
2024/01/05 01:15:31;;;;;;;28.45;15.18;;;;;;;;;;5119015;27;20039;-64
2024/01/05 01:17:58;;;;;;;25.90;13.98;;;;;;;;;;5098255;28;20050;-63
2024/01/05 01:20:24;;;;;;;29.13;14.25;;;;;;;;;;5099151;27;20130;-64
2024/01/05 01:22:50;;;;;;;27.92;14.95;;;;;;;;;;5120770;27;20079;-63
2024/01/05 01:25:17;;;;;;;31.08;14.85;;;;;;;;;;5098191;28;20039;-63
2024/01/05 01:27:43;;;;;;;24.52;14.95;;;;;;;;;;5115644;27;20050;-64
2024/01/05 01:30:10;;;;;;;29.67;14.68;;;;;;;;;;5116742;27;20119;-64
2024/01/05 01:32:36;;;;;;;31.38;15.20;;;;;;;;;;5115560;27;20097;-64
2024/01/05 01:35:03;;;;;;;32.40;14.20;;;;;;;;;;5097345;28;20040;-64
2024/01/05 01:37:29;;;;;;;25.52;14.88;;;;;;;;;;5097097;28;20504;-63
2024/01/05 01:39:55;;;;;;;24.02;14.68;;;;;;;;;;5097014;28;20035;-64
2024/01/05 01:42:22;;;;;;;27.48;14.15;;;;;;;;;;5073527;28;20055;-64
2024/01/05 01:44:48;;;;;;;27.30;15.80;;;;;;;;;;5115494;27;20054;-63
2024/01/05 01:47:14;;;;;;;28.00;14.73;;;;;;;;;;5115150;27;20039;-64
2024/01/05 01:49:40;;;;;;;26.58;15.20;;;;;;;;;;5113921;27;20046;-64
2024/01/05 01:52:07;;;;;;;26.08;13.90;;;;;;;;;;5097498;28;20050;-64
2024/01/05 01:54:33;;;;;;;23.40;14.90;;;;;;;;;;5115248;27;21019;-64
2024/01/05 01:57:01;;;;;;;29.25;14.15;;;;;;;;;;5112255;27;20130;-63
2024/01/05 01:59:27;;;;;;;29.77;14.15;;;;;;;;;;5095535;28;20378;-64
2024/01/05 02:01:54;;;;;;;24.30;14.13;;;;;;;;;;5094668;28;20046;-64
2024/01/05 02:04:20;;;;;;;24.58;13.85;;;;;;;;;;5114632;27;20043;-63
2024/01/05 02:06:46;;;;;;;31.58;15.82;;;;;;;;;;5093274;28;20044;-64
2024/01/05 02:09:13;;;;;;;30.77;14.30;;;;;;;;;;5118593;27;20403;-63
2024/01/05 02:11:40;;;;;;;25.13;13.95;;;;;;;;;;5117589;28;20042;-64
2024/01/05 02:14:06;;;;;;;26.98;14.70;;;;;;;;;;5096670;28;20047;-64
2024/01/05 02:16:32;;;;;;;30.88;15.82;;;;;;;;;;5119347;28;20073;-63
2024/01/05 02:18:58;;;;;;;25.98;14.85;;;;;;;;;;5101875;28;20449;-64
2024/01/05 02:21:32;;;;;;;28.67;15.27;;;;;;;;;;5119040;28;20043;-64
2024/01/05 02:23:59;;;;;;;32.25;15.90;;;;;;;;;;5102522;28;20035;-63
2024/01/05 02:26:25;;;;;;;29.90;16.10;;;;;;;;;;5096496;28;20059;-64
2024/01/05 02:28:51;;;;;;;29.38;15.65;;;;;;;;;;5095379;28;20385;-64
2024/01/05 02:31:17;;;;;;;25.10;14.10;;;;;;;;;;5097139;28;20039;-63
2024/01/05 02:33:43;;;;;;;32.10;15.88;;;;;;;;;;5097983;27;20078;-64
2024/01/05 02:36:10;;;;;;;28.52;14.25;;;;;;;;;;5119378;27;20133;-64
2024/01/05 02:38:36;;;;;;;28.27;15.20;;;;;;;;;;5118495;27;20061;-64
2024/01/05 02:41:02;;;;;;;27.60;13.93;;;;;;;;;;5101272;27;20051;-64
2024/01/05 02:43:29;;;;;;;29.77;14.35;;;;;;;;;;5117050;27;20108;-63
2024/01/05 02:45:55;;;;;;;22.80;12.25;;;;;;;;;;5098960;27;20674;-63
2024/01/05 02:48:21;;;;;;;29.13;13.85;;;;;;;;;;5093189;27;20040;-64
2024/01/05 02:50:47;;;;;;;27.45;13.93;;;;;;;;;;5081558;28;20078;-63
2024/01/05 02:53:13;;;;;;;29.00;14.73;;;;;;;;;;5122881;27;20134;-63
2024/01/05 02:55:39;;;;;;;26.58;13.90;;;;;;;;;;5102653;27;20109;-63
2024/01/05 02:58:05;;;;;;;23.95;14.05;;;;;;;;;;5102911;27;20083;-64
2024/01/05 03:00:32;;;;;;;27.33;13.70;;;;;;;;;;5100662;27;20173;-64
2024/01/05 03:02:58;;;;;;;28.95;13.15;;;;;;;;;;5119958;27;20142;-64
2024/01/05 03:05:24;;;;;;;25.08;12.38;;;;;;;;;;5119505;27;20039;-63
2024/01/05 03:07:50;;;;;;;26.58;13.73;;;;;;;;;;5103600;27;20048;-64
2024/01/05 03:10:16;;;;;;;23.25;11.70;;;;;;;;;;5105062;27;20063;-63
2024/01/05 03:12:42;;;;;;;28.48;12.43;;;;;;;;;;5116328;27;20096;-64
2024/01/05 03:15:09;;;;;;;25.70;12.30;;;;;;;;;;5100102;27;20082;-63
2024/01/05 03:17:35;;;;;;;24.17;12.68;;;;;;;;;;5117185;27;20115;-64
2024/01/05 03:20:02;;;;;;;21.35;11.65;;;;;;;;;;5098815;27;21083;-63
2024/01/05 03:22:28;;;;;;;20.55;10.85;;;;;;;;;;5095277;27;20494;-63
2024/01/05 03:24:54;;;;;;;23.45;12.55;;;;;;;;;;5113645;27;20081;-63
2024/01/05 03:27:20;;;;;;;22.88;11.82;;;;;;;;;;5120719;27;20042;-63
2024/01/05 03:29:46;;;;;;;25.70;12.23;;;;;;;;;;5117363;27;20493;-64
2024/01/05 03:32:13;;;;;;;24.88;12.10;;;;;;;;;;5081969;27;20066;-64
2024/01/05 03:34:39;;;;;;;25.52;12.95;;;;;;;;;;5116539;27;20032;-63
2024/01/05 03:37:05;;;;;;;28.75;13.30;;;;;;;;;;5096941;27;20054;-63
2024/01/05 03:39:31;;;;;;;27.38;13.88;;;;;;;;;;5096548;27;20051;-64
2024/01/05 03:41:57;;;;;;;22.27;12.15;;;;;;;;;;5099759;27;20047;-64
2024/01/05 03:44:24;;;;;;;26.98;12.40;;;;;;;;;;5116534;27;20494;-63
2024/01/05 03:46:51;;;;;;;30.45;14.27;;;;;;;;;;5118443;27;20039;-63
2024/01/05 03:49:17;;;;;;;23.08;13.02;;;;;;;;;;5099505;27;20046;-64
2024/01/05 03:51:44;;;;;;;24.48;12.25;;;;;;;;;;5120843;27;20490;-64
2024/01/05 03:54:10;;;;;;;31.33;11.98;;;;;;;;;;5099428;27;20103;-64
2024/01/05 03:56:41;;;;;;;21.60;12.05;;;;;;;;;;5075191;27;20079;-64
2024/01/05 03:59:07;;;;;;;25.08;12.20;;;;;;;;;;5117200;27;20108;-64
2024/01/05 04:01:33;;;;;;;27.90;12.32;;;;;;;;;;5120278;27;20046;-63
2024/01/05 04:04:00;;;;;;;21.90;11.73;;;;;;;;;;5119596;27;20139;-63
2024/01/05 04:06:26;;;;;;;24.70;12.07;;;;;;;;;;5117517;27;20114;-64
2024/01/05 04:08:52;;;;;;;23.30;12.10;;;;;;;;;;5118645;27;20138;-63
2024/01/05 04:11:20;;;;;;;27.90;12.57;;;;;;;;;;5099132;27;20118;-63
2024/01/05 04:13:47;;;;;;;21.40;11.70;;;;;;;;;;5098259;27;20096;-64
2024/01/05 04:16:13;;;;;;;21.75;10.70;;;;;;;;;;5098497;27;20043;-64
2024/01/05 04:18:40;;;;;;;26.00;11.15;;;;;;;;;;5098015;27;20051;-63
2024/01/05 04:21:06;;;;;;;21.38;10.50;;;;;;;;;;5117694;27;20451;-64
2024/01/05 04:23:32;;;;;;;23.65;11.43;;;;;;;;;;5121468;27;20042;-64
2024/01/05 04:25:59;;;;;;;17.55;10.65;;;;;;;;;;5099180;27;20047;-64
2024/01/05 04:28:25;;;;;;;24.65;10.82;;;;;;;;;;5119234;27;20039;-63
2024/01/05 04:30:51;;;;;;;21.95;10.80;;;;;;;;;;5116676;27;20413;-64
2024/01/05 04:33:17;;;;;;;24.17;10.82;;;;;;;;;;5078383;27;20148;-64
2024/01/05 04:35:46;;;;;;;24.15;10.93;;;;;;;;;;5116996;27;20395;-63
2024/01/05 04:38:12;;;;;;;22.52;11.43;;;;;;;;;;5098808;27;20080;-63
2024/01/05 04:40:38;;;;;;;19.90;10.02;;;;;;;;;;5079830;27;20477;-63
2024/01/05 04:43:04;;;;;;;21.15;11.00;;;;;;;;;;5118754;27;20047;-64
2024/01/05 04:45:30;;;;;;;22.23;11.20;;;;;;;;;;5119553;27;20049;-63
2024/01/05 04:47:57;;;;;;;22.98;11.63;;;;;;;;;;5114733;27;20535;-64
2024/01/05 04:50:23;;;;;;;20.15;10.43;;;;;;;;;;5121023;27;20060;-64
2024/01/05 04:52:49;;;;;;;19.30;10.20;;;;;;;;;;5097528;27;20344;-63
2024/01/05 04:55:15;;;;;;;25.15;10.98;;;;;;;;;;5097119;27;20194;-64
2024/01/05 04:57:42;;;;;;;22.45;12.75;;;;;;;;;;5097894;27;20047;-63
2024/01/05 05:00:08;;;;;;;21.33;10.05;;;;;;;;;;5093405;27;20047;-63
2024/01/05 05:02:34;;;;;;;20.27;11.00;;;;;;;;;;5116042;27;20366;-64
2024/01/05 05:05:01;;;;;;;23.27;11.20;;;;;;;;;;5096744;27;20039;-64
2024/01/05 05:07:27;;;;;;;21.50;9.63;;;;;;;;;;5123123;27;20402;-63
2024/01/05 05:09:53;;;;;;;18.50;9.98;;;;;;;;;;5100342;28;20123;-64
2024/01/05 05:12:19;;;;;;;17.63;9.23;;;;;;;;;;5103235;28;20088;-63
2024/01/05 05:14:45;;;;;;;17.13;9.30;;;;;;;;;;5105476;27;20130;-64
2024/01/05 05:17:11;;;;;;;17.85;9.85;;;;;;;;;;5102377;27;20419;-63
2024/01/05 05:19:38;;;;;;;21.40;9.88;;;;;;;;;;5103907;28;20035;-63
2024/01/05 05:22:04;;;;;;;22.95;10.07;;;;;;;;;;5120280;27;20125;-64
2024/01/05 05:24:30;;;;;;;16.27;9.50;;;;;;;;;;5100968;28;20343;-64
2024/01/05 05:26:56;;;;;;;20.48;10.88;;;;;;;;;;5122385;28;20038;-64
2024/01/05 05:29:23;;;;;;;22.92;11.02;;;;;;;;;;5099421;28;20052;-64
2024/01/05 05:31:49;;;;;;;20.30;9.93;;;;;;;;;;5119172;28;20081;-64
2024/01/05 05:34:17;;;;;;;18.88;9.95;;;;;;;;;;5116863;27;20195;-64
2024/01/05 05:36:43;;;;;;;18.60;10.18;;;;;;;;;;5114718;28;20047;-64
2024/01/05 05:39:10;;;;;;;20.77;10.13;;;;;;;;;;5116873;28;20051;-64
2024/01/05 05:41:36;;;;;;;18.90;10.98;;;;;;;;;;5092112;28;20039;-64
2024/01/05 05:44:03;;;;;;;22.10;10.23;;;;;;;;;;5113441;27;20043;-63
2024/01/05 05:46:29;;;;;;;21.17;9.93;;;;;;;;;;5097875;28;20075;-64
2024/01/05 05:48:56;;;;;;;22.40;11.38;;;;;;;;;;5094750;28;20618;-64
2024/01/05 05:51:22;;;;;;;21.63;11.55;;;;;;;;;;5115079;27;20433;-64
2024/01/05 05:53:48;;;;;;;24.15;12.13;;;;;;;;;;5115689;28;20047;-64
2024/01/05 05:56:14;;;;;;;22.77;11.80;;;;;;;;;;5116789;28;20039;-64
2024/01/05 05:58:40;;;;;;;24.50;12.07;;;;;;;;;;5077093;28;20130;-64
2024/01/05 06:01:06;;;;;;;19.48;11.50;;;;;;;;;;5096577;28;20039;-64
2024/01/05 06:03:33;;;;;;;18.48;11.23;;;;;;;;;;5115357;27;20104;-64
2024/01/05 06:05:59;;;;;;;20.98;11.25;;;;;;;;;;5096798;27;20039;-64
2024/01/05 06:08:25;;;;;;;20.40;10.93;;;;;;;;;;5099540;27;20138;-64
2024/01/05 06:10:51;;;;;;;20.35;9.68;;;;;;;;;;5100757;27;20474;-64
2024/01/05 06:13:18;;;;;;;19.73;10.32;;;;;;;;;;5100225;27;20043;-64
2024/01/05 06:15:44;;;;;;;22.95;10.98;;;;;;;;;;5076090;27;20095;-63
2024/01/05 06:18:10;;;;;;;22.70;11.85;;;;;;;;;;5099188;27;20525;-64
2024/01/05 06:20:36;;;;;;;20.80;11.95;;;;;;;;;;5100317;27;20195;-64
2024/01/05 06:23:03;;;;;;;23.25;12.05;;;;;;;;;;5098810;27;20051;-63
2024/01/05 06:25:29;;;;;;;23.13;12.90;;;;;;;;;;5119173;27;20035;-64
2024/01/05 06:27:55;;;;;;;23.15;12.50;;;;;;;;;;5118149;27;20041;-64
2024/01/05 06:30:21;;;;;;;23.38;12.70;;;;;;;;;;5119107;27;20395;-64
2024/01/05 06:32:47;;;;;;;21.73;11.82;;;;;;;;;;5120852;27;20160;-63
2024/01/05 06:35:13;;;;;;;23.33;13.55;;;;;;;;;;5119411;27;20031;-63
2024/01/05 06:37:41;;;;;;;22.83;11.57;;;;;;;;;;5101132;27;20131;-64
2024/01/05 06:40:07;;;;;;;22.73;11.50;;;;;;;;;;5100448;27;20368;-63
2024/01/05 06:42:33;;;;;;;23.10;11.55;;;;;;;;;;5098716;27;20382;-64
2024/01/05 06:45:00;;;;;;;23.73;12.18;;;;;;;;;;5099593;27;20866;-64
2024/01/05 06:47:27;;;;;;;19.85;10.38;;;;;;;;;;5082459;27;20058;-64
2024/01/05 06:49:53;;;;;;;19.23;10.57;;;;;;;;;;5121436;27;20051;-64
2024/01/05 06:52:20;;;;;;;23.70;11.75;;;;;;;;;;5107165;27;20039;-64
2024/01/05 06:54:46;;;;;;;19.55;10.95;;;;;;;;;;5120759;27;20046;-64
2024/01/05 06:57:12;;;;;;;24.58;13.10;;;;;;;;;;5108292;27;20500;-64
2024/01/05 06:59:39;;;;;;;20.23;11.27;;;;;;;;;;5100906;27;20090;-64
2024/01/05 07:02:05;;;;;;;22.13;11.98;;;;;;;;;;5099127;27;20047;-64
2024/01/05 07:04:32;;;;;;;25.73;12.70;;;;;;;;;;5098818;27;20054;-64
2024/01/05 07:06:58;;;;;;;22.27;12.30;;;;;;;;;;5112839;27;20054;-63
2024/01/05 07:09:24;;;;;;;23.98;13.82;;;;;;;;;;5116591;27;20043;-62
2024/01/05 07:11:52;;;;;;;25.50;13.48;;;;;;;;;;5096660;27;20047;-63
2024/01/05 07:14:19;;;;;;;26.20;14.27;;;;;;;;;;5100604;27;20039;-63
2024/01/05 07:16:45;;;;;;;28.15;15.15;;;;;;;;;;5097473;27;20048;-63
2024/01/05 07:19:12;;;;;;;24.95;13.30;;;;;;;;;;5122232;27;20112;-63
2024/01/05 07:21:45;;;;;;;28.95;16.10;;;;;;;;;;5122443;27;20047;-64
2024/01/05 07:24:14;;;;;;;32.03;14.70;;;;;;;;;;5099572;27;20111;-63
2024/01/05 07:26:40;;;;;;;31.58;15.27;;;;;;;;;;5119909;27;21439;-64
2024/01/05 07:29:06;;;;;;;29.17;15.18;;;;;;;;;;5118480;27;21290;-63
2024/01/05 07:31:33;;;;;;;25.30;14.38;;;;;;;;;;5117111;27;20147;-63
2024/01/05 07:33:59;;;;;;;28.17;15.45;;;;;;;;;;5079157;27;20682;-64
2024/01/05 07:36:25;;;;;;;30.20;15.15;;;;;;;;;;5121853;27;20154;-64
2024/01/05 07:38:51;;;;;;;28.65;14.85;;;;;;;;;;5099894;27;20122;-64
2024/01/05 07:41:18;;;;;;;29.73;14.95;;;;;;;;;;5121778;27;20091;-64
2024/01/05 07:43:44;;;;;;;29.98;14.52;;;;;;;;;;5118715;27;20449;-64
2024/01/05 07:46:11;;;;;;;28.55;14.73;;;;;;;;;;5117175;27;20122;-64
2024/01/05 07:48:40;;;;;;;29.25;14.65;;;;;;;;;;5100691;27;20444;-64
2024/01/05 07:51:06;;;;;;;28.13;14.90;;;;;;;;;;5082421;27;20463;-64
2024/01/05 07:53:32;;;;;;;26.02;14.65;;;;;;;;;;5097911;27;20068;-64
2024/01/05 07:56:00;;;;;;;28.83;15.32;;;;;;;;;;5096688;27;20479;-64
2024/01/05 07:58:26;;;;;;;29.73;15.07;;;;;;;;;;5115488;27;20039;-64
2024/01/05 08:00:52;;;;;;;31.42;15.02;;;;;;;;;;5101253;27;20059;-63
2024/01/05 08:03:21;;;;;;;27.80;14.32;;;;;;;;;;5117390;27;20082;-63
2024/01/05 08:05:47;;;;;;;31.80;15.68;;;;;;;;;;5120425;27;20043;-67
2024/01/05 08:08:14;;;;;;;29.23;15.13;;;;;;;;;;5121084;27;20043;-64
2024/01/05 08:10:40;;;;;;;27.25;14.68;;;;;;;;;;5121038;27;20039;-64
2024/01/05 08:13:06;;;;;;;24.52;14.40;;;;;;;;;;5101764;27;20099;-64
2024/01/05 08:15:33;;;;;;;28.58;14.93;;;;;;;;;;5101834;27;20149;-63
2024/01/05 08:17:59;;;;;;;26.23;14.63;;;;;;;;;;5117253;27;20039;-63
2024/01/05 08:20:25;;;;;;;29.15;14.55;;;;;;;;;;5085567;27;20054;-63
2024/01/05 08:22:51;;;;;;;29.75;14.88;;;;;;;;;;5118189;27;20032;-63
2024/01/05 08:25:18;;;;;;;27.55;14.05;;;;;;;;;;5101065;27;20343;-63
2024/01/05 08:27:44;;;;;;;26.77;14.63;;;;;;;;;;5103095;27;20055;-63
2024/01/05 08:30:11;;;;;;;27.63;14.82;;;;;;;;;;5098202;27;20531;-63
2024/01/05 08:32:38;;;;;;;34.08;15.90;;;;;;;;;;5099215;27;20055;-63
2024/01/05 08:35:06;;;;;;;30.13;15.45;;;;;;;;;;5115132;27;20157;-64
2024/01/05 08:37:32;;;;;;;27.23;14.73;;;;;;;;;;5115233;27;20046;-64
2024/01/05 08:39:58;;;;;;;32.50;16.10;;;;;;;;;;5118374;27;20144;-66
2024/01/05 08:42:24;;;;;;;36.05;17.25;;;;;;;;;;5097751;27;20051;-65
2024/01/05 08:44:51;;;;;;;33.80;17.20;;;;;;;;;;5096865;27;20427;-64
2024/01/05 08:47:17;;;;;;;33.22;17.17;;;;;;;;;;5101339;27;20035;-64
2024/01/05 08:49:44;;;;;;;37.33;17.55;;;;;;;;;;5102676;27;20096;-63
2024/01/05 08:52:10;;;;;;;35.08;17.05;;;;;;;;;;5094048;27;20142;-64
2024/01/05 08:54:40;;;;;;;36.95;17.13;;;;;;;;;;5114988;27;20491;-69
2024/01/05 08:57:10;;;;;;;34.88;17.50;;;;;;;;;;5101365;27;20059;-65
2024/01/05 08:59:38;;;;;;;33.63;16.20;;;;;;;;;;5081956;27;20046;-66
2024/01/05 09:02:04;;;;;;;39.65;18.80;;;;;;;;;;5097394;27;20567;-66
2024/01/05 09:04:31;;;;;;;36.53;20.73;;;;;;;;;;5122556;27;20046;-65
2024/01/05 09:06:59;;;;;;;36.25;21.27;;;;;;;;;;5077401;27;20704;-65
2024/01/05 09:09:25;;;;;;;42.05;18.60;;;;;;;;;;5102016;27;20375;-64
2024/01/05 09:11:51;;;;;;;42.67;20.92;;;;;;;;;;5098918;27;20259;-64
2024/01/05 09:14:17;;;;;;;33.28;18.00;;;;;;;;;;5112915;27;20051;-63
2024/01/05 09:16:43;;;;;;;37.10;18.38;;;;;;;;;;5096883;27;20549;-66
2024/01/05 09:19:10;;;;;;;32.75;17.42;;;;;;;;;;5097731;28;20066;-73
2024/01/05 09:21:36;;;;;;;33.03;16.95;;;;;;;;;;5099871;27;20637;-66
2024/01/05 09:24:02;;;;;;;41.15;21.85;;;;;;;;;;5119901;27;20039;-65
2024/01/05 09:26:28;;;;;;;31.35;15.80;;;;;;;;;;5116642;27;20385;-65
2024/01/05 09:28:55;;;;;;;39.03;21.85;;;;;;;;;;5120643;27;20035;-66
2024/01/05 09:31:21;;;;;;;34.45;18.17;;;;;;;;;;5100425;28;20073;-65
2024/01/05 09:33:49;;;;;;;32.17;16.38;;;;;;;;;;5094187;28;20058;-68
2024/01/05 09:36:16;;;;;;;36.60;22.25;;;;;;;;;;5115389;28;20035;-65
2024/01/05 09:38:43;;;;;;;30.10;15.70;;;;;;;;;;5099207;28;20447;-68
2024/01/05 09:41:13;;;;;;;28.52;14.85;;;;;;;;;;5100721;27;20039;-66
2024/01/05 09:43:41;;;;;;;28.67;16.20;;;;;;;;;;5101729;27;20092;-68
2024/01/05 09:46:07;;;;;;;34.85;17.05;;;;;;;;;;5102436;27;20035;-66
2024/01/05 09:48:34;;;;;;;26.38;14.88;;;;;;;;;;5100118;27;20047;-66
2024/01/05 09:51:01;;;;;;;33.80;15.77;;;;;;;;;;5116436;27;20098;-67
2024/01/05 09:53:27;;;;;;;34.85;18.55;;;;;;;;;;5103496;27;20051;-67
2024/01/05 09:55:54;;;;;;;30.88;16.42;;;;;;;;;;5124014;27;20035;-67
2024/01/05 09:58:21;;;;;;;28.42;15.13;;;;;;;;;;5097794;27;20152;-68
2024/01/05 10:00:50;;;;;;;30.88;14.82;;;;;;;;;;5098081;27;20039;-68
2024/01/05 10:03:20;;;;;;;27.35;15.40;;;;;;;;;;5098770;27;20035;-66
2024/01/05 10:05:48;;;;;;;28.25;14.02;;;;;;;;;;5084455;27;20108;-66
2024/01/05 10:08:15;;;;;;;33.80;14.15;;;;;;;;;;5096981;27;20148;-66
2024/01/05 10:10:48;;;;;;;24.08;12.85;;;;;;;;;;5121741;27;20088;-66
2024/01/05 10:13:15;;;;;;;28.42;14.75;;;;;;;;;;5101886;27;20055;-66
2024/01/05 10:16:02;;;;;;;27.55;14.25;;;;;;;;;;5119534;27;20501;-68
2024/01/05 10:18:29;;;;;;;30.00;13.98;;;;;;;;;;5126404;27;20066;-66
2024/01/05 10:20:57;;;;;;;29.60;14.50;;;;;;;;;;5103452;27;20072;-66
2024/01/05 10:23:23;;;;;;;34.40;14.55;;;;;;;;;;5099026;27;20471;-66
2024/01/05 10:25:51;;;;;;;26.23;14.20;;;;;;;;;;5104681;28;20035;-67
2024/01/05 10:28:23;;;;;;;24.45;13.23;;;;;;;;;;5099646;27;20101;-67
2024/01/05 10:30:49;;;;;;;26.25;12.60;;;;;;;;;;5099620;28;20388;-67
2024/01/05 10:33:18;;;;;;;22.92;12.93;;;;;;;;;;5092989;28;20051;-67
2024/01/05 10:35:44;;;;;;;22.30;11.88;;;;;;;;;;5092961;28;20076;-68
2024/01/05 10:38:13;;;;;;;24.77;13.20;;;;;;;;;;5077687;28;20148;-68
2024/01/05 10:40:40;;;;;;;25.77;13.40;;;;;;;;;;5103381;28;20543;-68
2024/01/05 10:43:07;;;;;;;23.60;11.73;;;;;;;;;;5095001;28;20089;-68
2024/01/05 10:45:35;;;;;;;26.38;12.55;;;;;;;;;;5093240;28;20048;-67
2024/01/05 10:48:03;;;;;;;22.35;12.30;;;;;;;;;;5105277;28;20042;-69
2024/01/05 10:50:30;;;;;;;26.60;13.27;;;;;;;;;;5105090;28;20047;-67
2024/01/05 10:52:57;;;;;;;27.80;13.32;;;;;;;;;;5092203;28;20100;-67
2024/01/05 10:55:23;;;;;;;25.83;12.95;;;;;;;;;;5090873;28;20044;-68
2024/01/05 10:57:49;;;;;;;29.65;13.32;;;;;;;;;;5093884;28;20076;-67
2024/01/05 11:00:16;;;;;;;26.60;13.43;;;;;;;;;;5091517;28;20047;-68
2024/01/05 11:02:43;;;;;;;24.33;12.52;;;;;;;;;;5080364;28;20052;-69
2024/01/05 11:05:10;;;;;;;24.35;13.23;;;;;;;;;;5099127;28;20043;-73
2024/01/05 11:07:37;;;;;;;28.50;14.02;;;;;;;;;;5092245;27;20047;-68
2024/01/05 11:10:27;;;;;;;29.65;14.00;;;;;;;;;;5092752;28;20044;-68
2024/01/05 11:13:12;;;;;;;24.92;12.95;;;;;;;;;;5090947;28;20129;-68
2024/01/05 11:15:58;;;;;;;27.30;13.35;;;;;;;;;;5101756;28;20046;-78
2024/01/05 11:18:25;;;;;;;26.23;13.32;;;;;;;;;;5102142;28;20181;-63
2024/01/05 11:21:04;;;;;;;24.85;12.40;;;;;;;;;;5101233;28;20039;-63
2024/01/05 11:23:33;;;;;;;29.75;13.50;;;;;;;;;;5101188;28;20043;-64
2024/01/05 11:25:59;;;;;;;27.15;13.75;;;;;;;;;;5092932;28;20476;-63
2024/01/05 11:28:33;;;;;;;27.45;12.93;;;;;;;;;;5097379;28;20532;-63
2024/01/05 11:30:59;;;;;;;31.55;14.02;;;;;;;;;;5077317;28;20571;-63
2024/01/05 11:33:43;;;;;;;26.95;11.68;;;;;;;;;;5104860;28;20132;-62
2024/01/05 11:36:09;;;;;;;25.55;13.18;;;;;;;;;;5089636;28;20139;-63
2024/01/05 11:38:42;;;;;;;32.00;13.68;;;;;;;;;;5094157;28;20063;-62
2024/01/05 11:41:17;;;;;;;29.95;13.90;;;;;;;;;;5098178;28;20036;-63
2024/01/05 11:43:43;;;;;;;29.45;14.23;;;;;;;;;;5096779;28;20437;-63
2024/01/05 11:46:09;;;;;;;27.48;14.07;;;;;;;;;;5089252;28;20047;-63
2024/01/05 11:48:35;;;;;;;35.42;14.50;;;;;;;;;;5101739;27;20399;-63
2024/01/05 11:51:02;;;;;;;26.52;14.25;;;;;;;;;;5090219;28;20044;-62
2024/01/05 11:53:29;;;;;;;24.38;13.73;;;;;;;;;;5103840;28;20079;-62
2024/01/05 11:55:56;;;;;;;32.75;15.65;;;;;;;;;;5102074;28;20040;-62
2024/01/05 11:58:31;;;;;;;31.08;15.40;;;;;;;;;;5089418;28;20526;-62
2024/01/05 12:00:59;;;;;;;33.45;15.02;;;;;;;;;;5110971;27;20071;-63
2024/01/05 12:03:26;;;;;;;32.25;15.02;;;;;;;;;;5093042;28;20131;-63
2024/01/05 12:05:54;;;;;;;28.08;13.63;;;;;;;;;;5098491;28;20126;-63
2024/01/05 12:08:21;;;;;;;30.17;13.70;;;;;;;;;;5091157;28;20126;-64
2024/01/05 12:10:52;;;;;;;29.13;14.65;;;;;;;;;;5097349;28;20067;-63
2024/01/05 12:13:24;;;;;;;30.40;15.13;;;;;;;;;;5089558;27;20047;-63
2024/01/05 12:15:53;;;;;;;32.88;14.90;;;;;;;;;;5097345;28;20036;-63
2024/01/05 12:18:23;;;;;;;31.27;14.85;;;;;;;;;;5096966;28;20054;-63
2024/01/05 12:20:53;;;;;;;29.80;15.02;;;;;;;;;;5101185;27;20036;-63
2024/01/05 12:23:19;;;;;;;28.60;14.27;;;;;;;;;;5102874;28;20047;-63
2024/01/05 12:25:46;;;;;;;29.33;14.90;;;;;;;;;;5099639;27;20151;-63
2024/01/05 12:28:19;;;;;;;27.15;14.80;;;;;;;;;;5100259;28;20092;-63
2024/01/05 12:30:45;;;;;;;30.85;15.55;;;;;;;;;;5111320;27;20523;-63
2024/01/05 12:33:12;;;;;;;28.85;14.25;;;;;;;;;;5115742;27;20131;-63
2024/01/05 12:35:38;;;;;;;29.80;14.35;;;;;;;;;;5085469;27;20436;-63
2024/01/05 12:38:04;;;;;;;29.50;14.85;;;;;;;;;;5122857;27;20187;-63
2024/01/05 12:40:30;;;;;;;27.60;14.55;;;;;;;;;;5102813;27;20231;-63
2024/01/05 12:42:57;;;;;;;28.52;14.30;;;;;;;;;;5101841;27;21809;-63
2024/01/05 12:45:23;;;;;;;30.02;14.10;;;;;;;;;;5112940;27;20073;-63
2024/01/05 12:47:50;;;;;;;26.13;14.55;;;;;;;;;;5118581;27;20070;-63
2024/01/05 12:50:23;;;;;;;30.05;16.20;;;;;;;;;;5123516;27;20035;-63
2024/01/05 12:52:49;;;;;;;30.37;15.10;;;;;;;;;;5126253;27;20367;-63
2024/01/05 12:55:31;;;;;;;27.67;14.93;;;;;;;;;;5122319;27;20040;-63
2024/01/05 12:58:02;;;;;;;26.38;14.75;;;;;;;;;;5105983;27;20047;-64
2024/01/05 13:00:29;;;;;;;35.88;15.63;;;;;;;;;;5122232;27;20043;-63
2024/01/05 13:02:55;;;;;;;30.55;14.82;;;;;;;;;;5122174;27;20089;-63
2024/01/05 13:05:29;;;;;;;33.80;15.70;;;;;;;;;;5102659;27;21511;-63
2024/01/05 13:07:57;;;;;;;30.88;14.75;;;;;;;;;;5103465;28;20394;-63
2024/01/05 13:10:24;;;;;;;35.35;15.38;;;;;;;;;;5102392;27;20042;-63
2024/01/05 13:12:50;;;;;;;28.30;14.57;;;;;;;;;;5121651;27;20036;-63
2024/01/05 13:15:16;;;;;;;30.23;14.70;;;;;;;;;;5121533;27;20505;-63
2024/01/05 13:17:46;;;;;;;28.50;14.18;;;;;;;;;;5102583;27;20096;-63
2024/01/05 13:20:14;;;;;;;35.47;15.75;;;;;;;;;;5123763;27;20061;-63
2024/01/05 13:22:41;;;;;;;32.83;15.30;;;;;;;;;;5122473;27;20065;-63
2024/01/05 13:25:08;;;;;;;29.08;14.50;;;;;;;;;;5102486;27;20126;-63
2024/01/05 13:27:35;;;;;;;32.13;16.48;;;;;;;;;;5105729;28;20074;-63
2024/01/05 13:30:02;;;;;;;28.20;14.63;;;;;;;;;;5103115;28;20043;-63
2024/01/05 13:32:28;;;;;;;37.60;17.25;;;;;;;;;;5093434;28;20100;-62
2024/01/05 13:34:54;;;;;;;30.23;15.18;;;;;;;;;;5093886;28;20044;-63
2024/01/05 13:37:23;;;;;;;28.98;15.27;;;;;;;;;;5121096;28;20110;-63
2024/01/05 13:39:49;;;;;;;30.45;15.10;;;;;;;;;;5104342;28;20409;-63
2024/01/05 13:42:16;;;;;;;29.60;14.48;;;;;;;;;;5122044;27;20509;-63
2024/01/05 13:44:42;;;;;;;31.70;15.27;;;;;;;;;;5102323;28;20045;-63
2024/01/05 13:47:08;;;;;;;31.48;15.13;;;;;;;;;;5117731;28;20479;-63
2024/01/05 13:49:34;;;;;;;29.45;14.57;;;;;;;;;;5101693;28;20061;-62
2024/01/05 13:52:00;;;;;;;29.02;15.00;;;;;;;;;;5112766;27;20478;-67
2024/01/05 13:54:30;;;;;;;27.27;14.98;;;;;;;;;;5097426;28;20039;-62
2024/01/05 13:56:57;;;;;;;29.58;14.98;;;;;;;;;;5098943;28;20054;-63
2024/01/05 13:59:23;;;;;;;28.50;14.48;;;;;;;;;;5098233;27;20040;-63
2024/01/05 14:01:49;;;;;;;25.30;14.05;;;;;;;;;;5118614;27;20043;-63
2024/01/05 14:04:15;;;;;;;27.13;14.43;;;;;;;;;;5120851;27;20077;-62
2024/01/05 14:06:41;;;;;;;24.58;13.50;;;;;;;;;;5122003;28;20048;-63
2024/01/05 14:09:08;;;;;;;22.80;13.00;;;;;;;;;;5114781;28;20093;-62
2024/01/05 14:11:34;;;;;;;23.95;13.02;;;;;;;;;;5112989;27;20126;-63
2024/01/05 14:14:01;;;;;;;22.30;13.32;;;;;;;;;;5099164;28;20062;-62
2024/01/05 14:16:27;;;;;;;26.02;14.05;;;;;;;;;;5098191;28;20162;-63
2024/01/05 14:18:54;;;;;;;28.95;13.70;;;;;;;;;;5111141;27;20051;-63